createdAt,value
2018-04-22T00:00:20.393Z,14.49
2018-04-22T00:01:20.547Z,14.56
2018-04-22T00:02:20.700Z,14.44
2018-04-22T00:03:20.854Z,14.53
2018-04-22T00:04:21.012Z,14.42
2018-04-22T00:05:21.164Z,14.50
2018-04-22T00:06:21.316Z,14.56
2018-04-22T00:07:21.470Z,14.47
2018-04-22T00:08:21.621Z,14.53
2018-04-22T00:09:21.777Z,14.47
2018-04-22T00:10:21.927Z,14.60
2018-04-22T00:11:22.083Z,14.61
2018-04-22T00:12:22.238Z,14.53
2018-04-22T00:13:22.388Z,14.53
2018-04-22T00:14:22.544Z,14.60
2018-04-22T00:15:22.695Z,14.52
2018-04-22T00:16:22.847Z,14.56
2018-04-22T00:17:23.001Z,14.50
2018-04-22T00:18:23.153Z,14.46
2018-04-22T00:19:23.310Z,14.39
2018-04-22T00:20:23.464Z,14.46
2018-04-22T00:21:23.620Z,14.46
2018-04-22T00:22:23.774Z,14.47
2018-04-22T00:23:23.926Z,14.37
2018-04-22T00:24:24.078Z,14.35
2018-04-22T00:25:24.231Z,14.32
2018-04-22T00:26:24.385Z,14.31
2018-04-22T00:27:24.536Z,14.19
2018-04-22T00:28:24.689Z,14.20
2018-04-22T00:29:24.879Z,14.27
2018-04-22T00:30:24.994Z,14.25
2018-04-22T00:31:25.152Z,14.27
2018-04-22T00:32:25.310Z,14.16
2018-04-22T00:33:25.460Z,14.24
2018-04-22T00:34:25.615Z,14.19
2018-04-22T00:35:25.771Z,14.19
2018-04-22T00:36:25.925Z,14.14
2018-04-22T00:37:26.078Z,14.28
2018-04-22T00:38:26.229Z,14.10
2018-04-22T00:39:26.383Z,14.13
2018-04-22T00:40:26.540Z,14.14
2018-04-22T00:41:26.695Z,14.06
2018-04-22T00:42:26.847Z,14.02
2018-04-22T00:43:27.047Z,14.09
2018-04-22T00:44:27.154Z,14.04
2018-04-22T00:45:27.309Z,14.02
2018-04-22T00:46:27.460Z,14.01
2018-04-22T00:47:27.618Z,14.04
2018-04-22T00:48:27.764Z,13.92
2018-04-22T00:49:27.917Z,13.83
2018-04-22T00:50:28.069Z,13.77
2018-04-22T00:51:28.226Z,13.65
2018-04-22T00:52:28.378Z,13.70
2018-04-22T00:53:28.530Z,13.59
2018-04-22T00:54:28.686Z,13.56
2018-04-22T00:55:28.830Z,13.62
2018-04-22T00:56:28.985Z,13.58
2018-04-22T00:57:29.140Z,13.58
2018-04-22T00:58:29.291Z,13.62
2018-04-22T00:59:29.442Z,13.52
2018-04-22T01:00:29.595Z,13.55
2018-04-22T01:01:29.748Z,13.41
2018-04-22T01:02:29.905Z,13.44
2018-04-22T01:03:30.053Z,13.38
2018-04-22T01:04:30.205Z,13.37
2018-04-22T01:05:30.359Z,13.47
2018-04-22T01:06:30.516Z,13.41
2018-04-22T01:07:30.666Z,13.38
2018-04-22T01:08:30.819Z,13.38
2018-04-22T01:09:30.973Z,13.51
2018-04-22T01:10:31.124Z,13.47
2018-04-22T01:11:31.277Z,13.40
2018-04-22T01:12:31.428Z,13.38
2018-04-22T01:13:31.584Z,13.37
2018-04-22T01:14:31.736Z,13.24
2018-04-22T01:15:31.887Z,13.29
2018-04-22T01:16:32.040Z,13.36
2018-04-22T01:17:32.193Z,13.24
2018-04-22T01:18:32.345Z,13.24
2018-04-22T01:19:32.496Z,13.17
2018-04-22T01:20:32.646Z,13.14
2018-04-22T01:21:32.802Z,13.07
2018-04-22T01:22:32.956Z,13.04
2018-04-22T01:23:33.110Z,12.95
2018-04-22T01:24:33.266Z,12.99
2018-04-22T01:25:33.411Z,13.03
2018-04-22T01:26:33.564Z,13.04
2018-04-22T01:27:33.726Z,12.95
2018-04-22T01:28:33.870Z,12.88
2018-04-22T01:29:34.022Z,12.92
2018-04-22T01:30:34.172Z,12.88
2018-04-22T01:31:34.326Z,12.93
2018-04-22T01:32:34.479Z,12.89
2018-04-22T01:33:34.636Z,12.97
2018-04-22T01:34:34.787Z,13.07
2018-04-22T01:35:34.943Z,13.02
2018-04-22T01:36:35.098Z,13.07
2018-04-22T01:37:35.251Z,13.02
2018-04-22T01:38:35.399Z,13.06
2018-04-22T01:39:35.557Z,12.93
2018-04-22T01:40:35.706Z,13.00
2018-04-22T01:41:35.859Z,12.99
2018-04-22T01:42:36.010Z,13.02
2018-04-22T01:43:36.164Z,12.99
2018-04-22T01:44:36.318Z,12.95
2018-04-22T01:45:36.468Z,12.92
2018-04-22T01:46:36.622Z,12.95
2018-04-22T01:47:36.768Z,12.97
2018-04-22T01:48:36.919Z,12.95
2018-04-22T01:49:37.069Z,12.82
2018-04-22T01:50:37.218Z,12.87
2018-04-22T01:51:37.373Z,12.82
2018-04-22T01:52:37.526Z,12.97
2018-04-22T01:53:37.679Z,12.87
2018-04-22T01:54:37.833Z,12.92
2018-04-22T01:55:37.984Z,12.82
2018-04-22T01:56:38.135Z,12.78
2018-04-22T01:57:38.296Z,12.81
2018-04-22T01:58:38.439Z,12.82
2018-04-22T01:59:38.591Z,12.88
2018-04-22T02:00:38.743Z,12.87
2018-04-22T02:01:38.895Z,12.92
2018-04-22T02:02:39.049Z,12.88
2018-04-22T02:03:39.202Z,12.84
2018-04-22T02:04:39.354Z,12.79
2018-04-22T02:05:39.509Z,12.87
2018-04-22T02:06:39.661Z,12.87
2018-04-22T02:07:39.814Z,12.95
2018-04-22T02:08:39.967Z,12.96
2018-04-22T02:09:40.119Z,13.03
2018-04-22T02:10:40.280Z,13.02
2018-04-22T02:11:40.424Z,13.12
2018-04-22T02:12:40.584Z,12.96
2018-04-22T02:13:40.734Z,12.93
2018-04-22T02:14:40.885Z,12.93
2018-04-22T02:15:41.034Z,12.81
2018-04-22T02:16:41.189Z,12.77
2018-04-22T02:17:41.340Z,12.79
2018-04-22T02:18:41.491Z,12.70
2018-04-22T02:19:41.648Z,12.71
2018-04-22T02:20:41.795Z,12.62
2018-04-22T02:21:41.948Z,12.59
2018-04-22T02:22:42.100Z,12.48
2018-04-22T02:23:42.251Z,12.45
2018-04-22T02:24:42.409Z,12.42
2018-04-22T02:25:42.562Z,12.46
2018-04-22T02:26:42.711Z,12.45
2018-04-22T02:27:42.863Z,12.45
2018-04-22T02:28:43.017Z,12.49
2018-04-22T02:29:43.169Z,12.39
2018-04-22T02:30:43.320Z,12.37
2018-04-22T02:31:43.476Z,12.37
2018-04-22T02:32:43.626Z,12.44
2018-04-22T02:33:43.780Z,12.34
2018-04-22T02:34:43.932Z,12.31
2018-04-22T02:35:44.080Z,12.42
2018-04-22T02:36:44.234Z,12.39
2018-04-22T02:37:44.384Z,12.34
2018-04-22T02:38:44.537Z,12.30
2018-04-22T02:39:44.688Z,12.42
2018-04-22T02:40:44.843Z,12.38
2018-04-22T02:41:45.002Z,12.54
2018-04-22T02:42:45.149Z,12.46
2018-04-22T02:43:45.298Z,12.49
2018-04-22T02:44:45.451Z,12.46
2018-04-22T02:45:45.603Z,12.39
2018-04-22T02:46:45.768Z,12.45
2018-04-22T02:47:45.907Z,12.44
2018-04-22T02:48:46.060Z,12.54
2018-04-22T02:49:46.211Z,12.51
2018-04-22T02:50:46.363Z,12.37
2018-04-22T02:51:46.514Z,12.37
2018-04-22T02:52:46.665Z,12.31
2018-04-22T02:53:46.818Z,12.19
2018-04-22T02:54:46.970Z,12.31
2018-04-22T02:55:47.119Z,12.29
2018-04-22T02:56:47.270Z,12.33
2018-04-22T02:57:47.421Z,12.31
2018-04-22T02:58:47.576Z,12.23
2018-04-22T02:59:47.731Z,12.21
2018-04-22T03:00:47.882Z,12.11
2018-04-22T03:01:48.042Z,12.23
2018-04-22T03:02:48.182Z,12.31
2018-04-22T03:03:48.336Z,12.30
2018-04-22T03:04:48.488Z,12.24
2018-04-22T03:05:48.640Z,12.34
2018-04-22T03:06:48.794Z,12.24
2018-04-22T03:07:48.944Z,12.45
2018-04-22T03:08:49.096Z,12.31
2018-04-22T03:09:49.247Z,12.24
2018-04-22T03:10:49.398Z,12.27
2018-04-22T03:11:49.551Z,12.23
2018-04-22T03:12:49.704Z,12.19
2018-04-22T03:13:49.853Z,12.21
2018-04-22T03:14:50.006Z,12.12
2018-04-22T03:15:50.157Z,12.11
2018-04-22T03:16:50.314Z,12.19
2018-04-22T03:17:50.463Z,12.19
2018-04-22T03:18:50.618Z,12.15
2018-04-22T03:19:50.767Z,12.21
2018-04-22T03:20:50.918Z,12.15
2018-04-22T03:21:51.069Z,12.13
2018-04-22T03:22:51.224Z,12.06
2018-04-22T03:23:51.373Z,12.12
2018-04-22T03:24:51.525Z,11.99
2018-04-22T03:25:51.679Z,11.87
2018-04-22T03:26:51.831Z,11.99
2018-04-22T03:27:51.980Z,12.01
2018-04-22T03:28:52.133Z,11.89
2018-04-22T03:29:52.285Z,11.86
2018-04-22T03:30:52.435Z,11.83
2018-04-22T03:31:52.590Z,11.89
2018-04-22T03:32:52.748Z,11.83
2018-04-22T03:33:52.895Z,11.83
2018-04-22T03:34:53.047Z,11.96
2018-04-22T03:35:53.197Z,11.90
2018-04-22T03:36:53.347Z,11.97
2018-04-22T03:37:53.498Z,11.85
2018-04-22T03:38:53.651Z,11.94
2018-04-22T03:39:53.801Z,11.85
2018-04-22T03:40:53.945Z,11.80
2018-04-22T03:41:54.095Z,11.89
2018-04-22T03:42:54.249Z,11.82
2018-04-22T03:43:54.401Z,11.75
2018-04-22T03:44:54.548Z,11.59
2018-04-22T03:45:54.700Z,11.64
2018-04-22T03:46:54.859Z,11.67
2018-04-22T03:47:55.005Z,11.64
2018-04-22T03:48:55.159Z,11.47
2018-04-22T03:49:55.309Z,11.57
2018-04-22T03:50:55.462Z,11.77
2018-04-22T03:51:55.615Z,11.75
2018-04-22T03:52:55.766Z,11.87
2018-04-22T03:53:55.920Z,11.93
2018-04-22T03:54:56.072Z,12.05
2018-04-22T03:55:56.223Z,12.04
2018-04-22T03:56:56.375Z,12.02
2018-04-22T03:57:56.527Z,12.02
2018-04-22T03:58:56.676Z,12.02
2018-04-22T03:59:56.830Z,12.04
2018-04-22T04:00:56.983Z,11.87
2018-04-22T04:01:57.135Z,11.87
2018-04-22T04:02:57.289Z,11.86
2018-04-22T04:03:57.439Z,11.85
2018-04-22T04:04:57.595Z,11.82
2018-04-22T04:05:57.779Z,11.85
2018-04-22T04:06:57.895Z,11.96
2018-04-22T04:07:58.049Z,12.05
2018-04-22T04:08:58.200Z,11.85
2018-04-22T04:09:58.354Z,11.82
2018-04-22T04:10:58.505Z,11.65
2018-04-22T04:11:58.669Z,11.75
2018-04-22T04:12:58.805Z,11.75
2018-04-22T04:13:58.958Z,11.68
2018-04-22T04:14:59.109Z,11.62
2018-04-22T04:15:59.259Z,11.50
2018-04-22T04:16:59.413Z,11.47
2018-04-22T04:17:59.563Z,11.49
2018-04-22T04:18:59.717Z,11.46
2018-04-22T04:19:59.867Z,11.41
2018-04-22T04:21:00.019Z,11.41
2018-04-22T04:22:00.173Z,11.50
2018-04-22T04:23:00.325Z,11.44
2018-04-22T04:24:00.476Z,11.38
2018-04-22T04:25:00.627Z,11.35
2018-04-22T04:26:00.780Z,11.38
2018-04-22T04:27:00.932Z,11.36
2018-04-22T04:28:01.080Z,11.36
2018-04-22T04:29:01.231Z,11.43
2018-04-22T04:30:01.391Z,11.39
2018-04-22T04:31:01.534Z,11.34
2018-04-22T04:32:01.689Z,11.44
2018-04-22T04:33:01.844Z,11.46
2018-04-22T04:34:01.993Z,11.46
2018-04-22T04:35:02.145Z,11.49
2018-04-22T04:36:02.321Z,11.52
2018-04-22T04:37:02.451Z,11.41
2018-04-22T04:38:02.602Z,11.53
2018-04-22T04:39:02.754Z,11.41
2018-04-22T04:40:02.907Z,11.46
2018-04-22T04:41:03.057Z,11.41
2018-04-22T04:42:03.212Z,11.35
2018-04-22T04:43:03.359Z,11.44
2018-04-22T04:44:03.517Z,11.35
2018-04-22T04:45:03.667Z,11.43
2018-04-22T04:46:03.818Z,11.54
2018-04-22T04:47:03.970Z,11.62
2018-04-22T04:48:04.121Z,11.68
2018-04-22T04:49:04.275Z,11.75
2018-04-22T04:50:04.427Z,11.75
2018-04-22T04:51:04.579Z,11.68
2018-04-22T04:52:04.733Z,11.75
2018-04-22T04:53:04.883Z,11.80
2018-04-22T04:54:05.034Z,11.74
2018-04-22T04:55:05.186Z,11.77
2018-04-22T04:56:05.339Z,11.68
2018-04-22T04:57:05.490Z,11.68
2018-04-22T04:58:05.642Z,11.64
2018-04-22T04:59:05.798Z,11.64
2018-04-22T05:00:05.945Z,11.77
2018-04-22T05:01:06.098Z,11.82
2018-04-22T05:02:06.251Z,11.77
2018-04-22T05:03:06.402Z,11.82
2018-04-22T05:04:06.554Z,11.77
2018-04-22T05:05:06.705Z,11.77
2018-04-22T05:06:06.856Z,11.85
2018-04-22T05:07:07.007Z,11.78
2018-04-22T05:08:07.155Z,11.77
2018-04-22T05:09:07.307Z,11.70
2018-04-22T05:10:07.460Z,11.70
2018-04-22T05:11:07.610Z,11.78
2018-04-22T05:12:07.760Z,11.75
2018-04-22T05:13:07.913Z,11.70
2018-04-22T05:14:08.068Z,11.71
2018-04-22T05:15:08.219Z,11.71
2018-04-22T05:16:08.372Z,11.67
2018-04-22T05:17:08.525Z,11.65
2018-04-22T05:18:08.675Z,11.70
2018-04-22T05:19:08.826Z,11.74
2018-04-22T05:20:08.982Z,11.72
2018-04-22T05:21:09.135Z,11.75
2018-04-22T05:22:09.286Z,11.70
2018-04-22T05:23:09.438Z,11.71
2018-04-22T05:24:09.591Z,11.75
2018-04-22T05:25:09.745Z,11.77
2018-04-22T05:26:09.896Z,11.85
2018-04-22T05:27:10.049Z,11.75
2018-04-22T05:28:10.202Z,11.89
2018-04-22T05:29:10.354Z,11.94
2018-04-22T05:30:10.508Z,11.93
2018-04-22T05:31:10.666Z,11.96
2018-04-22T05:32:10.811Z,12.01
2018-04-22T05:33:10.969Z,12.06
2018-04-22T05:34:11.120Z,12.08
2018-04-22T05:35:11.270Z,12.21
2018-04-22T05:36:11.424Z,12.24
2018-04-22T05:37:11.575Z,12.20
2018-04-22T05:38:11.728Z,12.21
2018-04-22T05:39:11.890Z,12.41
2018-04-22T05:40:12.035Z,12.38
2018-04-22T05:41:12.188Z,12.49
2018-04-22T05:42:12.343Z,12.52
2018-04-22T05:43:12.492Z,12.56
2018-04-22T05:44:12.643Z,12.52
2018-04-22T05:45:12.797Z,12.49
2018-04-22T05:46:12.951Z,12.56
2018-04-22T05:47:13.101Z,12.62
2018-04-22T05:48:13.256Z,12.70
2018-04-22T05:49:13.407Z,12.70
2018-04-22T05:50:13.560Z,12.88
2018-04-22T05:51:13.716Z,12.99
2018-04-22T05:52:13.862Z,13.00
2018-04-22T05:53:14.015Z,13.07
2018-04-22T05:54:14.169Z,13.11
2018-04-22T05:55:14.324Z,13.11
2018-04-22T05:56:14.474Z,13.30
2018-04-22T05:57:14.628Z,13.41
2018-04-22T05:58:14.781Z,13.47
2018-04-22T05:59:14.936Z,13.58
2018-04-22T06:00:15.088Z,13.69
2018-04-22T06:01:15.241Z,13.67
2018-04-22T06:02:15.407Z,13.70
2018-04-22T06:03:15.547Z,13.73
2018-04-22T06:04:15.699Z,13.73
2018-04-22T06:05:15.856Z,13.67
2018-04-22T06:06:16.007Z,13.83
2018-04-22T06:07:16.161Z,13.89
2018-04-22T06:08:16.317Z,14.01
2018-04-22T06:09:16.468Z,13.87
2018-04-22T06:10:16.622Z,14.06
2018-04-22T06:11:16.778Z,14.09
2018-04-22T06:12:16.932Z,14.16
2018-04-22T06:13:17.086Z,14.28
2018-04-22T06:14:17.228Z,14.32
2018-04-22T06:15:17.377Z,14.27
2018-04-22T06:16:17.534Z,14.32
2018-04-22T06:17:17.707Z,14.24
2018-04-22T06:18:17.841Z,14.12
2018-04-22T06:19:17.999Z,13.88
2018-04-22T06:20:18.149Z,13.95
2018-04-22T06:21:18.304Z,13.80
2018-04-22T06:22:18.458Z,13.76
2018-04-22T06:23:18.611Z,13.74
2018-04-22T06:24:18.769Z,13.61
2018-04-22T06:25:18.920Z,13.74
2018-04-22T06:26:19.076Z,13.91
2018-04-22T06:27:19.229Z,13.91
2018-04-22T06:28:19.390Z,14.14
2018-04-22T06:29:19.536Z,14.02
2018-04-22T06:30:19.695Z,14.09
2018-04-22T06:31:19.848Z,14.16
2018-04-22T06:32:19.998Z,14.21
2018-04-22T06:33:20.153Z,14.24
2018-04-22T06:34:20.307Z,14.25
2018-04-22T06:35:20.458Z,14.14
2018-04-22T06:36:20.615Z,14.07
2018-04-22T06:37:20.770Z,14.16
2018-04-22T06:38:20.927Z,14.21
2018-04-22T06:39:21.076Z,14.17
2018-04-22T06:40:21.269Z,14.19
2018-04-22T06:41:21.382Z,14.21
2018-04-22T06:42:21.538Z,14.31
2018-04-22T06:43:21.692Z,14.49
2018-04-22T06:44:21.845Z,14.52
2018-04-22T06:45:22.002Z,14.64
2018-04-22T06:46:22.155Z,14.78
2018-04-22T06:47:22.309Z,14.72
2018-04-22T06:48:22.461Z,14.81
2018-04-22T06:49:22.616Z,14.80
2018-04-22T06:50:22.771Z,14.83
2018-04-22T06:51:22.928Z,14.84
2018-04-22T06:52:23.080Z,14.75
2018-04-22T06:53:23.245Z,14.90
2018-04-22T06:54:23.389Z,14.90
2018-04-22T06:55:23.542Z,14.87
2018-04-22T06:56:23.697Z,15.08
2018-04-22T06:57:23.851Z,15.09
2018-04-22T06:58:24.007Z,15.21
2018-04-22T06:59:24.163Z,15.17
2018-04-22T07:00:24.321Z,15.21
2018-04-22T07:01:24.472Z,15.26
2018-04-22T07:02:24.626Z,15.27
2018-04-22T07:03:24.780Z,15.35
2018-04-22T07:04:24.925Z,15.49
2018-04-22T07:05:25.126Z,15.67
2018-04-22T07:06:25.250Z,15.70
2018-04-22T07:07:25.404Z,15.82
2018-04-22T07:08:25.560Z,15.92
2018-04-22T07:09:25.718Z,15.94
2018-04-22T07:10:25.875Z,15.85
2018-04-22T07:11:26.028Z,15.94
2018-04-22T07:12:26.181Z,15.72
2018-04-22T07:13:26.345Z,15.59
2018-04-22T07:14:26.498Z,15.54
2018-04-22T07:15:26.664Z,15.66
2018-04-22T07:16:26.796Z,15.60
2018-04-22T07:17:27.001Z,15.88
2018-04-22T07:18:27.163Z,15.84
2018-04-22T07:19:27.314Z,15.84
2018-04-22T07:20:27.476Z,15.74
2018-04-22T07:21:27.629Z,15.70
2018-04-22T07:22:27.783Z,15.81
2018-04-22T07:23:27.937Z,15.85
2018-04-22T07:24:28.090Z,15.97
2018-04-22T07:25:28.244Z,15.92
2018-04-22T07:26:28.398Z,16.22
2018-04-22T07:27:28.554Z,16.27
2018-04-22T07:28:28.712Z,16.22
2018-04-22T07:29:28.864Z,16.48
2018-04-22T07:30:29.019Z,16.62
2018-04-22T07:31:29.171Z,16.68
2018-04-22T07:32:29.324Z,16.85
2018-04-22T07:33:29.485Z,17.00
2018-04-22T07:34:29.648Z,16.89
2018-04-22T07:35:29.784Z,16.90
2018-04-22T07:36:29.943Z,16.99
2018-04-22T07:37:30.098Z,17.08
2018-04-22T07:38:30.253Z,17.15
2018-04-22T07:39:30.412Z,17.13
2018-04-22T07:40:30.563Z,17.13
2018-04-22T07:41:30.719Z,17.08
2018-04-22T07:42:30.914Z,17.22
2018-04-22T07:43:31.034Z,17.38
2018-04-22T07:44:31.186Z,17.44
2018-04-22T07:45:31.342Z,17.63
2018-04-22T07:46:31.498Z,17.74
2018-04-22T07:47:31.655Z,17.87
2018-04-22T07:48:31.809Z,18.10
2018-04-22T07:49:31.968Z,18.10
2018-04-22T07:50:32.125Z,18.00
2018-04-22T07:51:32.281Z,17.78
2018-04-22T07:52:32.437Z,17.78
2018-04-22T07:53:32.615Z,17.94
2018-04-22T07:54:32.755Z,17.99
2018-04-22T07:55:32.910Z,18.12
2018-04-22T07:56:33.067Z,18.12
2018-04-22T07:57:33.222Z,18.24
2018-04-22T07:58:33.382Z,18.29
2018-04-22T07:59:33.540Z,18.31
2018-04-22T08:00:33.693Z,18.52
2018-04-22T08:01:33.853Z,18.61
2018-04-22T08:02:34.007Z,18.61
2018-04-22T08:03:34.164Z,18.52
2018-04-22T08:04:34.323Z,18.57
2018-04-22T08:05:34.486Z,18.42
2018-04-22T08:06:34.635Z,18.54
2018-04-22T08:07:34.792Z,18.42
2018-04-22T08:08:34.950Z,18.46
2018-04-22T08:09:35.103Z,18.37
2018-04-22T08:10:35.260Z,18.46
2018-04-22T08:11:35.416Z,18.43
2018-04-22T08:12:35.574Z,18.46
2018-04-22T08:13:35.731Z,18.55
2018-04-22T08:14:35.904Z,18.62
2018-04-22T08:15:36.063Z,18.65
2018-04-22T08:16:36.220Z,18.82
2018-04-22T08:17:36.376Z,18.87
2018-04-22T08:18:36.532Z,18.98
2018-04-22T08:19:36.689Z,19.21
2018-04-22T08:20:36.880Z,19.31
2018-04-22T08:21:37.027Z,19.18
2018-04-22T08:22:37.150Z,19.08
2018-04-22T08:23:37.299Z,19.20
2018-04-22T08:24:37.453Z,19.47
2018-04-22T08:25:37.610Z,19.43
2018-04-22T08:26:37.774Z,19.57
2018-04-22T08:27:37.927Z,19.72
2018-04-22T08:28:38.083Z,19.93
2018-04-22T08:29:38.239Z,20.00
2018-04-22T08:30:38.400Z,19.87
2018-04-22T08:31:38.555Z,19.68
2018-04-22T08:32:38.712Z,19.76
2018-04-22T08:33:38.869Z,19.84
2018-04-22T08:34:39.028Z,19.84
2018-04-22T08:35:39.197Z,19.87
2018-04-22T08:36:39.346Z,19.90
2018-04-22T08:37:39.504Z,20.00
2018-04-22T08:38:39.663Z,20.06
2018-04-22T08:39:39.823Z,20.23
2018-04-22T08:40:39.978Z,20.50
2018-04-22T08:41:40.138Z,20.58
2018-04-22T08:42:40.298Z,20.77
2018-04-22T08:43:40.456Z,20.86
2018-04-22T08:44:40.614Z,21.01
2018-04-22T08:45:40.768Z,21.13
2018-04-22T08:46:40.928Z,21.35
2018-04-22T08:47:41.088Z,21.42
2018-04-22T08:48:41.244Z,21.35
2018-04-22T08:49:41.406Z,21.53
2018-04-22T08:50:41.615Z,21.48
2018-04-22T08:51:41.723Z,21.63
2018-04-22T08:52:41.894Z,21.69
2018-04-22T08:53:42.050Z,21.50
2018-04-22T08:54:42.212Z,21.44
2018-04-22T08:55:42.368Z,21.51
2018-04-22T08:56:42.557Z,21.56
2018-04-22T08:57:42.686Z,21.67
2018-04-22T08:58:42.845Z,21.64
2018-04-22T08:59:43.010Z,21.53
2018-04-22T09:00:43.162Z,21.54
2018-04-22T09:01:43.330Z,21.56
2018-04-22T09:02:43.487Z,21.74
2018-04-22T09:03:43.647Z,21.83
2018-04-22T09:04:43.808Z,21.98
2018-04-22T09:05:43.969Z,22.13
2018-04-22T09:06:44.128Z,22.10
2018-04-22T09:07:44.288Z,21.98
2018-04-22T09:08:44.449Z,21.85
2018-04-22T09:09:44.608Z,21.74
2018-04-22T09:10:44.769Z,21.78
2018-04-22T09:11:44.931Z,21.66
2018-04-22T09:12:45.090Z,21.75
2018-04-22T09:13:45.254Z,21.97
2018-04-22T09:14:45.408Z,21.98
2018-04-22T09:15:45.698Z,21.99
2018-04-22T09:16:45.711Z,21.95
2018-04-22T09:17:45.871Z,22.09
2018-04-22T09:18:46.039Z,22.20
2018-04-22T09:19:46.196Z,22.04
2018-04-22T09:20:46.355Z,21.90
2018-04-22T09:21:46.514Z,21.76
2018-04-22T09:22:46.678Z,21.83
2018-04-22T09:23:46.838Z,22.06
2018-04-22T09:24:47.006Z,22.23
2018-04-22T09:25:47.159Z,22.38
2018-04-22T09:26:47.319Z,22.47
2018-04-22T09:27:47.478Z,22.56
2018-04-22T09:28:47.641Z,22.62
2018-04-22T09:29:47.799Z,22.84
2018-04-22T09:30:47.958Z,22.60
2018-04-22T09:31:48.123Z,22.69
2018-04-22T09:32:48.280Z,22.86
2018-04-22T09:33:48.444Z,22.92
2018-04-22T09:34:48.603Z,22.97
2018-04-22T09:35:48.761Z,22.96
2018-04-22T09:36:48.921Z,22.97
2018-04-22T09:37:49.083Z,22.93
2018-04-22T09:38:49.241Z,22.82
2018-04-22T09:39:49.409Z,22.72
2018-04-22T09:40:49.562Z,22.82
2018-04-22T09:41:49.727Z,22.90
2018-04-22T09:42:49.886Z,22.80
2018-04-22T09:43:50.043Z,22.80
2018-04-22T09:44:50.204Z,22.84
2018-04-22T09:45:50.368Z,22.99
2018-04-22T09:46:50.533Z,23.26
2018-04-22T09:47:50.686Z,23.22
2018-04-22T09:48:50.846Z,23.43
2018-04-22T09:49:51.021Z,23.64
2018-04-22T09:50:51.166Z,23.68
2018-04-22T09:51:51.328Z,23.79
2018-04-22T09:52:51.488Z,23.68
2018-04-22T09:53:51.646Z,23.43
2018-04-22T09:54:51.806Z,23.39
2018-04-22T09:55:51.970Z,23.27
2018-04-22T09:56:52.128Z,23.52
2018-04-22T09:57:52.292Z,23.52
2018-04-22T09:58:52.455Z,23.60
2018-04-22T09:59:52.613Z,23.85
2018-04-22T10:00:52.784Z,24.02
2018-04-22T10:01:52.947Z,24.14
2018-04-22T10:02:53.107Z,24.10
2018-04-22T10:03:53.269Z,24.27
2018-04-22T10:04:53.459Z,24.32
2018-04-22T10:05:53.592Z,24.50
2018-04-22T10:06:53.752Z,24.67
2018-04-22T10:07:53.923Z,24.57
2018-04-22T10:08:54.079Z,24.57
2018-04-22T10:09:54.240Z,24.45
2018-04-22T10:10:54.439Z,24.60
2018-04-22T10:11:54.566Z,24.75
2018-04-22T10:12:54.728Z,24.57
2018-04-22T10:13:54.892Z,24.52
2018-04-22T10:14:55.062Z,24.37
2018-04-22T10:15:55.228Z,24.38
2018-04-22T10:16:55.387Z,24.32
2018-04-22T10:17:55.543Z,24.42
2018-04-22T10:18:55.704Z,24.49
2018-04-22T10:19:55.874Z,24.79
2018-04-22T10:20:56.029Z,24.80
2018-04-22T10:21:56.203Z,24.76
2018-04-22T10:22:56.351Z,24.82
2018-04-22T10:23:56.510Z,25.12
2018-04-22T10:24:56.671Z,25.06
2018-04-22T10:25:56.839Z,25.16
2018-04-22T10:26:56.998Z,25.39
2018-04-22T10:27:57.163Z,25.34
2018-04-22T10:28:57.321Z,25.46
2018-04-22T10:29:57.487Z,25.47
2018-04-22T10:30:57.647Z,25.64
2018-04-22T10:31:57.811Z,25.74
2018-04-22T10:32:57.971Z,25.75
2018-04-22T10:33:58.135Z,25.97
2018-04-22T10:34:58.298Z,25.94
2018-04-22T10:35:58.463Z,26.04
2018-04-22T10:36:58.622Z,26.17
2018-04-22T10:37:58.783Z,26.22
2018-04-22T10:38:58.946Z,26.28
2018-04-22T10:39:59.116Z,26.36
2018-04-22T10:40:59.275Z,26.47
2018-04-22T10:41:59.459Z,26.42
2018-04-22T10:42:59.596Z,26.52
2018-04-22T10:43:59.758Z,26.46
2018-04-22T10:44:59.925Z,26.52
2018-04-22T10:46:00.086Z,26.32
2018-04-22T10:47:00.247Z,26.50
2018-04-22T10:48:00.424Z,26.47
2018-04-22T10:49:00.593Z,26.54
2018-04-22T10:50:00.753Z,26.54
2018-04-22T10:51:00.920Z,26.36
2018-04-22T10:52:01.087Z,26.73
2018-04-22T10:53:01.249Z,26.83
2018-04-22T10:54:01.423Z,26.99
2018-04-22T10:55:01.574Z,27.10
2018-04-22T10:56:01.739Z,27.29
2018-04-22T10:57:01.902Z,27.21
2018-04-22T10:58:02.100Z,27.23
2018-04-22T10:59:02.229Z,27.43
2018-04-22T11:00:02.394Z,27.54
2018-04-22T11:01:02.563Z,27.64
2018-04-22T11:02:02.748Z,27.41
2018-04-22T11:03:02.892Z,27.58
2018-04-22T11:04:03.063Z,27.43
2018-04-22T11:05:03.270Z,27.21
2018-04-22T11:06:03.382Z,27.38
2018-04-22T11:07:03.544Z,27.58
2018-04-22T11:08:03.713Z,27.79
2018-04-22T11:09:03.880Z,27.70
2018-04-22T11:10:04.042Z,27.74
2018-04-22T11:11:04.205Z,27.69
2018-04-22T11:12:04.373Z,27.28
2018-04-22T11:13:04.534Z,27.43
2018-04-22T11:14:04.697Z,27.29
2018-04-22T11:15:04.866Z,27.31
2018-04-22T11:16:05.027Z,27.21
2018-04-22T11:17:05.191Z,26.94
2018-04-22T11:18:05.354Z,27.01
2018-04-22T11:19:05.519Z,27.20
2018-04-22T11:20:05.683Z,27.17
2018-04-22T11:21:05.848Z,27.16
2018-04-22T11:22:06.030Z,27.32
2018-04-22T11:23:06.173Z,27.20
2018-04-22T11:24:06.339Z,27.39
2018-04-22T11:25:06.505Z,27.50
2018-04-22T11:26:06.666Z,27.48
2018-04-22T11:27:06.830Z,27.58
2018-04-22T11:28:06.994Z,27.42
2018-04-22T11:29:07.157Z,27.50
2018-04-22T11:30:07.324Z,27.73
2018-04-22T11:31:07.485Z,27.77
2018-04-22T11:32:07.658Z,27.79
2018-04-22T11:33:07.821Z,27.76
2018-04-22T11:34:07.985Z,27.91
2018-04-22T11:35:08.148Z,27.99
2018-04-22T11:36:08.312Z,28.03
2018-04-22T11:37:08.480Z,28.10
2018-04-22T11:38:08.635Z,28.03
2018-04-22T11:39:08.799Z,27.99
2018-04-22T11:40:08.963Z,27.96
2018-04-22T11:41:09.127Z,28.21
2018-04-22T11:42:09.295Z,28.14
2018-04-22T11:43:09.458Z,27.99
2018-04-22T11:44:09.622Z,27.94
2018-04-22T11:45:09.784Z,27.95
2018-04-22T11:46:09.950Z,27.82
2018-04-22T11:47:10.117Z,27.92
2018-04-22T11:48:10.280Z,28.10
2018-04-22T11:49:10.453Z,28.07
2018-04-22T11:50:10.612Z,27.89
2018-04-22T11:51:10.775Z,27.76
2018-04-22T11:52:10.939Z,27.66
2018-04-22T11:53:11.104Z,27.57
2018-04-22T11:54:11.266Z,27.41
2018-04-22T11:55:11.431Z,27.42
2018-04-22T11:56:11.596Z,27.43
2018-04-22T11:57:11.762Z,27.41
2018-04-22T11:58:11.928Z,27.23
2018-04-22T11:59:12.091Z,27.36
2018-04-22T12:00:12.256Z,27.26
2018-04-22T12:01:12.431Z,27.50
2018-04-22T12:02:12.602Z,27.66
2018-04-22T12:03:12.763Z,27.74
2018-04-22T12:04:12.926Z,28.06
2018-04-22T12:05:13.092Z,28.13
2018-04-22T12:06:13.254Z,28.33
2018-04-22T12:07:13.419Z,28.28
2018-04-22T12:08:13.582Z,28.31
2018-04-22T12:09:13.745Z,28.40
2018-04-22T12:10:13.908Z,28.38
2018-04-22T12:11:14.072Z,28.26
2018-04-22T12:12:14.236Z,28.16
2018-04-22T12:13:14.402Z,28.01
2018-04-22T12:14:14.564Z,28.16
2018-04-22T12:15:14.728Z,28.17
2018-04-22T12:16:14.891Z,28.23
2018-04-22T12:17:15.055Z,28.41
2018-04-22T12:18:15.222Z,28.73
2018-04-22T12:19:15.385Z,28.78
2018-04-22T12:20:15.551Z,28.63
2018-04-22T12:21:15.713Z,28.77
2018-04-22T12:22:15.875Z,28.70
2018-04-22T12:23:16.042Z,28.73
2018-04-22T12:24:16.204Z,28.66
2018-04-22T12:25:16.370Z,28.69
2018-04-22T12:26:16.543Z,28.73
2018-04-22T12:27:16.704Z,28.40
2018-04-22T12:28:16.867Z,28.46
2018-04-22T12:29:17.028Z,28.38
2018-04-22T12:30:17.199Z,28.35
2018-04-22T12:31:17.365Z,28.32
2018-04-22T12:32:17.526Z,28.46
2018-04-22T12:33:17.690Z,28.59
2018-04-22T12:34:17.855Z,28.59
2018-04-22T12:35:18.020Z,28.28
2018-04-22T12:36:18.186Z,28.26
2018-04-22T12:37:18.350Z,28.50
2018-04-22T12:38:18.512Z,28.53
2018-04-22T12:39:18.675Z,28.69
2018-04-22T12:40:18.841Z,28.50
2018-04-22T12:41:19.002Z,28.46
2018-04-22T12:42:19.165Z,28.46
2018-04-22T12:43:19.329Z,28.59
2018-04-22T12:44:19.493Z,28.68
2018-04-22T12:45:19.657Z,28.56
2018-04-22T12:46:19.830Z,28.72
2018-04-22T12:47:19.989Z,28.78
2018-04-22T12:48:20.157Z,28.77
2018-04-22T12:49:20.327Z,28.80
2018-04-22T12:50:20.488Z,28.75
2018-04-22T12:51:20.656Z,28.70
2018-04-22T12:52:20.815Z,28.60
2018-04-22T12:53:20.977Z,28.58
2018-04-22T12:54:21.140Z,28.58